Airfield :
LOGIN :

Register | Disclaimer

   EN    FR    IT 

 










Legend :    VFR   Marginal VFR   IFR   Intensive IFR   Very Intensive IFR
Visi :
Ceiling :
>= 8 km
>= 3000ft
5 to 8 km
1000 to 3000 ft
1500m to 5 km
500 to 1000 ft
800 to 1500m
200 to 500 ft
< 800m
< 200 ft
Symbols :   Thunderstorms  Fog  Heavy snow  Heavy precipitations  Wind > 20 kt
SIGMETs :     Misc.  Thunderstorms  Icing  Turbulence  Mountain Waves  Volcanic Ashes






- Airport Elevation : 79 ft
- IATA code : SPU


LDSP - Split

CURRENT METAR :
  • 161230Z 12009KT 090V150 9999 FEW035 SCT045 17/12 Q1022 NOSIG

EXPIRED METARs :
  • 161200Z 12009KT 9999 FEW035 SCT050 17/12 Q1022 NOSIG
  • 161130Z 11010KT 9999 FEW025 SCT048 17/12 Q1023 NOSIG
  • 161100Z 11010KT 9999 FEW025 SCT048 16/11 Q1023 NOSIG
  • 161030Z 12010KT 9999 FEW025 SCT040 17/12 Q1023 NOSIG
  • 161000Z 11012KT 9999 FEW025 SCT045 17/12 Q1023 NOSIG

TAF TAF LDSP
Valid from the 16 at 12:00 until the 17 at 12:00 UTC


161125Z 1612/1712 10009KT 9999 SCT030 BKN045 TX17/1711Z TN14/1706Z
PROB30
TEMPO 1709/1712 12015G25KT



MET'MAP, your aeronautical weather chart ! - Copyright ORBIFLY December 2007 - Disclaimer

ORBIFLY MET'MAP TEAM :

Programming & Development : Alexandra Zaïnal
Concept & original design : Baudouin d'Aumeries
Assistance for programming : Marc-Olivier Méhu
Technical & hardware support : Manuel Goepfert

Contact : metmap@orbifly.com




SOURCES & CREDITS :

   NOAA